Skip to navigation Skip to content Skip to footer
Bentley University Falcons
146 Northeast-10 Championships
80 CoSIDA Academic All-Americas
2014 NCAA Div. II Women's Basketball National Champs
2001 NCAA Div. II Field Hockey National Champs
Women's Basketball: NCAA Record 35 NCAA tournaments

Bentley

Game-by-Game Results

 

Game Results

 

   Game date     Opposing team     Score     r-h-e  r-h-e  Inns  Overall  Northeast-10  Pitcher of record  Attend  Time 
  02/13/10   at  Rollins  4-1       4-8-2  1-4-4  9   1-0-0  0-0-0   Finneran (W 1-0)  143  2:28 
  02/14/10   at  Rollins    3-17  L     3-7-7  17-16-1  9   1-1-0  0-0-0   Murphy (L 0-1)  139  2:34 
  02/15/10   at  Rollins    6-9  L     6-8-4  9-12-3  9   1-2-0  0-0-0   Boudrow (L 0-1)  109  2:07 
  02/16/10   at  Rollins  3-2       3-8-1  2-9-1  9   2-2-0  0-0-0   Yohe (W 1-0)  86  2:16 
  02/18/10   vs  Florida Tech    10-13  L     10-17-1  13-11-0  9   2-3-0  0-0-0   Croteau (L 0-1)  43  2:52 
  02/19/10   at  Florida Tech    1-9  L     1-5-1  9-12-0  9   2-4-0  0-0-0   Murphy (L 0-2)  33  2:20 
  02/20/10   at  Florida Tech    0-1  L     0-6-3  1-10-3  9   2-5-0  0-0-0   Finneran (L 1-1)  112  2:16 
  02/21/10   vs  Florida Tech    6-7  L     6-11-3  7-11-3  9   2-6-0  0-0-0   Yohe (L 1-1)  54  2:39 
  03/05/10   vs  Saint Anselm  4-3       4-10-1  3-7-1  9   3-6-0  0-0-0   Finneran (W 2-1)  67  1:55 
  03/06/10   vs  Saint Anselm    0-3  L     0-4-3  3-6-2  9   3-7-0  0-0-0   Murphy (L 0-3)  135  2:10 
  03/07/10   at  Saint Leo    3-8  L     3-10-0  8-16-0  9   3-8-0  0-0-0   Yohe (L 1-2)  355  2:15 
  03/08/10   at  #16 Tampa    0-7  L     0-4-1  7-14-1  9   3-9-0  0-0-0   Boudrow (L 0-1)  169  2:11 
  03/09/10   vs  American Int'l.  6-3       6-9-0  3-10-1  9   4-9-0  0-0-0   McLean (W 1-0)  123  2:30 
  03/10/10   vs  Stonehill    6-7  L     6-11-1  7-12-1  9   4-10-0  0-0-0   Jasiak (L 0-1)  200  2:05 
  03/11/10   vs  Stonehill  7-6       7-14-0  6-16-1  9   5-10-0  0-0-0   Sandonato (W 1-0)  101  2:21 
03/17/10     SAINT ANSELM  5-4       5-11-1  4-10-0  (10)   6-10-0  1-0-0   Sandonato (W 2-0)  85  2:35 
03/18/10   at  Saint Anselm  18-5       18-21-1  5-9-3  9   7-10-0  2-0-0   Finneran (W 3-1)  258  3:15 
03/20/10   at  Adelphi-1  6-2       6-13-0  2-8-1  9   8-10-0  3-0-0   McLean (W 2-0)  125  2:30 
03/20/10   at  Adelphi-2    3-7  L     3-11-2  7-13-0  9   8-11-0  3-1-0   Boudrow (L 0-3)  125  2:30 
03/24/10     UMASS-LOWELL    7-11  L     7-12-2  11-19-1  9   8-12-0  3-2-0   Yohe (L 1-3)  56  2:40 
03/25/10   at  UMass-Lowell  5-0       5-12-0  0-4-1  9   9-12-0  4-2-0   Finneran (W 4-1)  92  1:58 
03/27/10     PACE  8-0       8-13-1  0-2-4  9   10-12-0  5-2-0   Murphy (W 1-3)  78  2:27 
03/28/10   at  #16 Franklin Pierce  8-7       8-14-4  7-12-1  9   11-12-0  6-2-0   Boudrow (W 1-3)  127  3:15 
03/31/10   at  #19 Franklin Pierce    2-5  L     2-7-1  5-9-1  9   11-13-0  6-3-0   Yohe (L 1-4)  118  2:31 
04/02/10     PACE  5-2       5-10-0  2-10-3  9   12-13-0  7-3-0   Finneran (W 5-1)  83  1:54 
04/06/10   at  Stonehill    9-10  L     9-18-2  10-17-1  (10)   12-14-0  7-4-0   Sherman (L 0-1)  142  3:32 
  04/07/10   at  Stonehill    6-10  L     6-12-0  10-18-2  9   12-15-0  7-4-0   Croteau (L 0-2)  192  2:40 
04/08/10     STONEHILL  2-1       2-10-0  1-10-2  (13)   13-15-0  8-4-0   Sandonato (W 3-0)  75  2:50 
04/10/10     #25 SOUTHERN CONNECTICUT-1    3-7  L     3-9-0  7-12-1  (10)   13-16-0  8-5-0   Finneran (L 5-2)  185  2:54 
04/10/10     #25 SOUTHERN CONNECTICUT-2    0-13  L     0-6-5  13-18-2  9   13-17-0  8-6-0   Boudrow (L 1-4)  85  2:39 
  04/12/10     SAINT ANSELM  10-4       10-11-0  4-8-2  9   14-17-0  8-6-0   McLean (W 3-0)  65  2:38 
  04/13/10   at  UMass-Lowell  6-3       6-13-0  3-7-4  9   15-17-0  8-6-0   Croteau (W 1-2)  41  2:19 
04/15/10   at  Assumption  8-1       8-10-2  1-10-2  9   16-17-0  9-6-0   Murphy (W 2-3)  100  2:40 
04/17/10   at  American Int'l.-1  5-1       5-10-0  1-6-2  9   17-17-0  10-6-0   Finneran (W 6-2)  42  1:50 
04/17/10   at  American Int'l.-2  15-0       15-16-0  0-6-4  9   18-17-0  11-6-0   Yohe (W 2-4)  36  2:25 
04/20/10     MERRIMACK    4-5  L     4-6-2  5-7-0  (13)   18-18-0  11-7-0   Sandonato (L 3-1)  87  3:04 
04/22/10   at  Merrimack  7-1       7-14-0  1-5-2  9   19-18-0  12-7-0   Murphy (W 3-3)  63  2:25 
  04/23/10     MERRIMACK  10-0       10-15-2  0-2-1  9   20-18-0  12-7-0   Boudrow (W 2-4)  134  2:14 
04/24/10   at  New Haven-1    0-7  L     0-4-2  7-13-1  9   20-19-0  12-8-0   Yohe (L 2-5)  105  1:55 
04/24/10   at  New Haven-2    2-6  L     2-9-1  6-8-1  9   20-20-0  12-9-0   Croteau (L 1-3)  105  2:15 
04/25/10   at  So. New Hampshire    6-7  L     6-14-2  7-13-3  9   20-21-0  12-10-0   Sandonato (L 3-2)  137  2:49 
04/29/10     ASSUMPTION    3-4  L     3-8-1  4-9-2  9   20-22-0  12-11-0   Finneran (L 6-3)  92  2:03 
04/30/10     SO. NEW HAMPSHIRE    5-6  L     5-8-2  6-10-2  9   20-23-0  12-12-0   Murphy (L 3-4)  133  2:29 
05/01/10     SAINT ROSE-1  5-2       5-11-1  2-9-1  9   21-23-0  13-12-0   Yohe (W 3-5)  127  2:13 
05/01/10     SAINT ROSE-2    2-5  L     2-8-4  5-13-0  9   21-24-0  13-13-0   Boudrow (L 2-5)  127  2:17 
  05/04/10     TUFTS    7-13  L     7-9-1  13-22-2  9   21-25-0  13-13-0   Croteau (L 1-4)  68  2:54 

* = Conference game
() extra inning game
 

Team Game-by-Game

 


Batting (All games)

   Date     Opponent  ab  rbi  2b  3b  hr  bb  ibb  sb  cs  hbp  sh  sf  gdp  po    avg 
  02/13/10   at  Rollins   32  27  13  .250 
  02/14/10   at  Rollins   31  24  11  .238 
  02/15/10   at  Rollins   36  24  13  .232 
  02/16/10   at  Rollins   35  27  10  .231 
  02/18/10   vs  Florida Tech   40  10  17  10  27  10  .276 
  02/19/10   at  Florida Tech   31  24  10  .259 
  02/20/10   at  Florida Tech   33  24  10  .248 
  02/21/10   vs  Florida Tech   41  11  27  10  .251 
  03/05/10   vs  Saint Anselm   32  10  27  12  .257 
  03/06/10   vs  Saint Anselm   32  24  .245 
  03/07/10   at  Saint Leo   35  10  13  24  .249 
  03/08/10   at  Tampa   31  13  24  12  .240 
  03/09/10   vs  American Int'l.   33  27  15  .242 
  03/10/10   vs  Stonehill   36  11  24  .247 
  03/11/10   vs  Stonehill   39  14  27  11  .255 
03/17/10     SAINT ANSELM   36  11  30  16  .259 
03/18/10   at  Saint Anselm   50  18  21  16  27  .272 
03/20/10   at  Adelphi   39  13  27  .276 
03/20/10   at  Adelphi   36  11  24  13  .277 
03/24/10     UMASS-LOWELL   38  12  27  12  .279 
03/25/10   at  UMass-Lowell   36  12  27  10  .282 
03/27/10     PACE   38  13  27  13  .285 
03/28/10   at  Franklin Pierce   42  14  27  14  .287 
03/31/10   at  Franklin Pierce   32  12  27  14  .285 
04/02/10     PACE   32  10  27  10  .286 
04/06/10   at  Stonehill   46  18  28  .291 
  04/07/10   at  Stonehill   39  12  24  .292 
04/08/10     STONEHILL   47  10  39  21  .288 
04/10/10     SOUTHERN CONNECTICUT  38  30  12  .286 
04/10/10     SOUTHERN CONNECTICUT  32  27  17  .283 
  04/12/10     SAINT ANSELM   35  10  11  27  .284 
  04/13/10   at  UMass-Lowell   40  13  27  13  .286 
04/15/10   at  Assumption   37  10  27  17  .285 
04/17/10   at  American Int'l.   37  10  27  12  .285 
04/17/10   at  American Int'l.   44  15  16  27  .287 
04/20/10     MERRIMACK   41  39  20  .283 
04/22/10   at  Merrimack   39  14  27  15  .285 
  04/23/10     MERRIMACK   39  10  15  27  12  .288 
04/24/10   at  New Haven   31  24  11  .285 
04/24/10   at  New Haven   35  24  11  .284 
04/25/10   at  So. New Hampshire   40  14  26  .286 
04/29/10     ASSUMPTION   34  27  .285 
04/30/10     SO. NEW HAMPSHIRE   34  27  .283 
05/01/10     SAINT ROSE   32  11  27  20  .285 
05/01/10     SAINT ROSE   34  27  16  .284 
  05/04/10     TUFTS   36  27  11  .283 
   Totals        1686  241  477  215  70  13  20  100  45  13  30  13  13  32  284  1236  540  67  .283 



Pitching (All games)

   Date     Opponent  ip  er  bb  so  2b  3b  hr  wp  bk  hbp  dp  ibb  score  sv    era 
  02/13/10   at  Rollins   9.0  4-1  0.00 
  02/14/10   at  Rollins   8.0  16  17  12  3-17  6.35 
  02/15/10   at  Rollins   8.0  12  6-9  7.20 
  02/16/10   at  Rollins   9.0  3-2  5.82 
  02/18/10   vs  Florida Tech   9.0  11  13  11  10-13  6.91 
  02/19/10   at  Florida Tech   8.0  12  1-9  7.24 
  02/20/10   at  Florida Tech   8.0  10  0-1  6.41 
  02/21/10   vs  Florida Tech   9.0  11  6-7  6.22 
  03/05/10   vs  Saint Anselm   9.0  4-3  5.84 
  03/06/10   vs  Saint Anselm   8.0  11  0-3  5.40 
  03/07/10   at  Saint Leo   8.0  16  3-8  5.71 
  03/08/10   at  Tampa   8.0  14  0-7  5.88 
  03/09/10   vs  American Int'l.   9.0  10  6-3  5.65 
  03/10/10   vs  Stonehill   8.0  12  6-7  10  5.72 
  03/11/10   vs  Stonehill   9.0  16  7-6  10  5.74 
03/17/10     SAINT ANSELM   10.0  10  5-4  10  5.58 
03/18/10   at  Saint Anselm   9.0  18-5  10  5.55 
03/20/10   at  Adelphi   9.0  6-2  10  5.34 
03/20/10   at  Adelphi   8.0  13  3-7  11  5.41 
03/24/10     UMASS-LOWELL   9.0  19  11  11  7-11  12  5.70 
03/25/10   at  UMass-Lowell   9.0  11  5-0  12  5.42 
03/27/10     PACE   9.0  8-0  10  12  5.16 
03/28/10   at  Franklin Pierce   9.0  12  8-7  11  12  5.20 
03/31/10   at  Franklin Pierce   9.0  2-5  11  13  5.15 
04/02/10     PACE   9.0  10  10  5-2  12  13  5.02 
04/06/10   at  Stonehill   9.1  17  10  11  9-10  12  14  5.13 
  04/07/10   at  Stonehill   8.0  18  10  10  6-10  12  15  5.34 
04/08/10     STONEHILL   13.0  10  11  2-1  13  15  5.09 
04/10/10     SOUTHERN CONNECTICUT  10.0  12  11  3-7  13  16  5.14 
04/10/10     SOUTHERN CONNECTICUT  9.0  18  13  0-13  13  17  5.27 
  04/12/10     SAINT ANSELM   9.0  11  10-4  14  17  5.23 
  04/13/10   at  UMass-Lowell   9.0  6-3  15  17  5.16 
04/15/10   at  Assumption   9.0  10  8-1  16  17  5.03 
04/17/10   at  American Int'l.   9.0  5-1  17  17  4.91 
04/17/10   at  American Int'l.   9.0  10  15-0  18  17  4.77 
04/20/10     MERRIMACK   13.0  4-5  18  18  4.66 
04/22/10   at  Merrimack   9.0  7-1  19  18  4.56 
  04/23/10     MERRIMACK   9.0  10-0  20  18  4.44 
04/24/10   at  New Haven   8.0  13  0-7  20  19  4.50 
04/24/10   at  New Haven   8.0  2-6  20  20  4.52 
04/25/10   at  So. New Hampshire   8.2  13  6-7  20  21  4.59 
04/29/10     ASSUMPTION   9.0  11  3-4  20  22  4.57 
04/30/10     SO. NEW HAMPSHIRE   9.0  10  10  5-6  20  23  4.58 
05/01/10     SAINT ROSE   9.0  5-2  21  23  4.50 
05/01/10     SAINT ROSE   9.0  13  2-5  21  24  4.49 
  05/04/10     TUFTS   9.0  22  13  7-13  21  25  4.59 
   Totals        412.0  485  245  210  134  278  77  13  19  22  26  40  241-245  21  25  4.59 

* = Northeast-10 game

 

Team Situational Game-by-Game

 


Batting (All games)

 
  
 
date 
 
  
 
opponent 
total
h-ab 
vs
left 
vs
right 
with
runners 
bases
empty 
bases
loaded 
with
2-outs 
with
rbi-op 
rch as
leadoff 
3rd and
lt 2out 
 
lob 
  02/13/10   at  Rollins   8-32  0-0  8-32  5-19  3-13  0-0  4-10  2-12  5-9  0-1 
  02/14/10   at  Rollins   7-31  0-2  7-29  4-11  3-20  0-0  6-12  2-5  2-9  0-0 
  02/15/10   at  Rollins   8-36  6-28  2-8  4-14  4-22  0-0  6-16  2-8  2-9  0-0 
  02/16/10   at  Rollins   8-35  1-8  7-27  4-18  4-17  0-0  2-11  2-9  2-9  1-1 
  02/18/10   vs  Florida Tech   17-40  9-28  8-12  10-21  7-19  1-1  3-10  6-14  5-9  3-5 
  02/19/10   at  Florida Tech   5-31  0-0  5-31  1-13  4-18  0-0  1-10  1-6  3-9  0-0 
  02/20/10   at  Florida Tech   6-33  6-33  0-0  2-16  4-17  0-0  1-9  0-6  3-9  0-0 
  02/21/10   vs  Florida Tech   11-41  9-35  2-6  5-22  6-19  1-2  5-15  3-11  5-9  0-1  10 
  03/05/10   vs  Saint Anselm   10-32  0-0  10-32  4-15  6-17  1-1  2-9  2-6  4-9  2-2 
  03/06/10   vs  Saint Anselm   4-32  0-0  4-32  0-10  4-22  0-0  0-10  0-7  1-9  0-0 
  03/07/10   at  Saint Leo   10-35  0-0  10-35  6-21  4-14  0-0  1-8  2-10  3-9  0-2 
  03/08/10   at  Tampa   4-31  4-28  0-3  1-11  3-20  0-0  0-8  0-5  3-9  0-2 
  03/09/10   vs  American Int'l.   9-33  0-0  9-33  4-15  5-18  0-0  3-10  1-5  4-9  3-4 
  03/10/10   vs  Stonehill   11-36  8-21  3-15  6-17  5-19  0-0  5-13  5-15  3-9  2-4 
  03/11/10   vs  Stonehill   14-39  9-25  5-14  9-18  5-21  0-0  10-19  3-9  2-9  0-1 
03/17/10     Saint Anselm   11-36  0-0  11-36  5-16  6-20  1-1  5-14  3-11  4-10  3-3 
03/18/10   at  Saint Anselm   21-50  4-8  17-42  11-28  10-22  0-1  7-18  8-18  4-9  2-2  11 
03/20/10   at  Adelphi   13-39  0-0  13-39  6-24  7-15  0-0  3-12  3-15  6-9  2-2 
03/20/10   at  Adelphi   11-36  0-0  11-36  2-23  9-13  0-0  1-10  1-13  7-9  0-1 
03/24/10     UMass-Lowell   12-38  0-0  12-38  6-20  6-18  1-3  1-10  3-14  5-9  4-5 
03/25/10   at  UMass-Lowell   12-36  0-0  12-36  4-18  8-18  0-0  0-7  2-12  4-9  2-2 
03/27/10     Pace   13-38  6-14  7-24  8-22  5-16  0-0  5-14  6-12  4-8  2-2 
03/28/10   at  Franklin Pierce   14-42  1-2  13-40  8-27  6-15  0-0  5-15  5-15  4-9  3-3  10 
03/31/10   at  Franklin Pierce   7-32  0-0  7-32  3-17  4-15  0-0  2-10  2-8  5-9  0-0 
04/02/10     Pace   10-32  2-3  8-29  6-17  4-15  0-0  2-8  4-10  3-8  2-3 
04/06/10   at  Stonehill   18-46  0-0  18-46  11-30  7-16  0-0  5-15  7-24  6-10  3-4  10 
  04/07/10   at  Stonehill   12-39  0-0  12-39  3-19  9-20  0-3  3-13  1-11  5-9  1-3  13 
04/08/10     Stonehill   10-47  0-0  10-47  4-17  6-30  0-1  2-13  2-10  2-13  0-1  10 
04/10/10     Southern Connecticut  9-38  0-0  9-38  4-12  5-26  0-1  3-12  1-7  1-10  1-1 
04/10/10     Southern Connecticut  6-32  0-3  6-29  2-11  4-21  0-0  2-10  1-8  2-10  0-0 
  04/12/10     Saint Anselm   11-35  0-0  11-35  9-23  2-12  0-0  3-12  6-16  3-8  3-4 
  04/13/10   at  UMass-Lowell   13-40  0-0  13-40  6-22  7-18  0-0  4-13  5-15  4-9  2-4 
04/15/10   at  Assumption   10-37  0-0  10-37  7-22  3-15  1-5  3-10  7-17  4-9  2-4 
04/17/10   at  American Int'l.   10-37  0-0  10-37  4-22  6-15  0-0  2-11  4-15  4-9  3-4  10 
04/17/10   at  American Int'l.   16-44  0-0  16-44  10-26  6-18  1-1  3-12  7-16  5-9  3-4 
04/20/10     Merrimack   6-41  5-23  1-18  4-12  2-29  0-0  0-11  1-9  3-13  4-7 
04/22/10   at  Merrimack   14-39  2-5  12-34  7-26  7-13  0-0  3-12  4-18  6-9  1-2  11 
  04/23/10     Merrimack   15-39  0-0  15-39  6-21  9-18  0-0  5-13  5-12  4-8  3-4 
04/24/10   at  New Haven   4-31  0-0  4-31  1-9  3-22  0-0  1-9  0-3  2-9  0-0 
04/24/10   at  New Haven   9-35  0-0  9-35  4-16  5-19  0-0  3-12  2-8  4-9  1-1 
04/25/10   at  So. New Hampshire   14-40  11-31  3-9  7-20  7-20  0-0  7-14  4-14  2-9  1-2 
04/29/10     Assumption   8-34  0-0  8-34  4-12  4-22  0-0  4-14  3-8  2-9  1-1 
04/30/10     So. New Hampshire   8-34  0-0  8-34  4-18  4-16  0-0  0-8  3-9  4-9  1-1 
05/01/10     Saint Rose   11-32  10-28  1-4  7-17  4-15  0-2  2-8  5-11  3-8  2-3 
05/01/10     Saint Rose   8-34  0-0  8-34  4-12  4-22  0-0  5-14  2-7  1-9  0-0 
  05/04/10     Tufts   9-36  0-0  9-36  5-19  4-17  1-4  3-12  3-13  3-9  1-4  11 
   Totals        477-1686  93-325  384-1361  237-839  240-847  8-26  143-536  141-507  163-421  64-100  342 
            .283  .286  .282  .282  .283  .308  .267  .278  .387  .640 



Pitching (All games)

 
  
 
date 
 
  
 
opponent 
 
score 
 
w-l 
total
h-ab 
vs
left 
vs
right 
with
runners 
bases
empty 
with
2-outs 
rch as
leadoff 
gnd
out 
fly
out 
 
  era 
  02/13/10   at  Rollins   4-1  W   4-30  2-10  2-20  1-17  3-13  0-7  3-9  11  0.00 
  02/14/10   at  Rollins   3-17  L   16-41  5-11  11-30  9-27  7-14  3-12  5-8  6.35 
  02/15/10   at  Rollins   6-9  L   12-34  2-9  10-25  8-17  4-17  5-12  3-8  11  7.20 
  02/16/10   at  Rollins   3-2  W   9-36  3-11  6-25  4-15  5-21  3-12  2-9  10  12  5.82 
  02/18/10   vs  Florida Tech   10-13  L   11-35  3-17  8-18  7-20  4-15  3-13  5-9  11  6.91 
  02/19/10   at  Florida Tech   1-9  L   12-32  4-17  8-15  8-21  4-11  3-11  5-8  10  7.24 
  02/20/10   at  Florida Tech   0-1  L   10-33  4-12  6-21  4-12  6-21  7-15  0-8  6.41 
  02/21/10   vs  Florida Tech   6-7  L   11-37  4-16  7-21  5-17  6-20  4-13  5-9  13  6.22 
  03/05/10   vs  Saint Anselm   4-3  W   7-34  1-8  6-26  4-10  3-24  3-11  0-9  11  5.84 
  03/06/10   vs  Saint Anselm   0-3  L   6-32  3-7  3-25  4-14  2-18  1-10  3-8  5.40 
  03/07/10   at  Saint Leo   3-8  L   16-36  3-8  13-28  8-18  8-18  8-15  3-8  12  5.71 
  03/08/10   at  Tampa   0-7  L   14-37  5-12  9-25  7-21  7-16  7-15  4-8  12  5.88 
  03/09/10   vs  American Int'l.   6-3  W   10-32  0-3  10-29  5-16  5-16  1-7  3-9  10  5.65 
  03/10/10   vs  Stonehill   6-7  L   12-32  8-16  4-16  4-13  8-19  1-9  5-8  10  5.72 
  03/11/10   vs  Stonehill   7-6  W   16-38  6-17  10-21  8-25  8-13  1-7  6-9  5.74 
03/17/10     Saint Anselm   5-4  W   10-37  1-9  9-28  5-18  5-19  2-11  5-10  16  12  5.58 
03/18/10   at  Saint Anselm   18-5  W   9-36  1-8  8-28  5-15  4-21  5-14  1-9  11  5.55 
03/20/10   at  Adelphi   6-2  W   8-34  2-8  6-26  3-17  5-17  4-13  3-9  10  12  5.34 
03/20/10   at  Adelphi   3-7  L   13-34  2-3  11-31  9-20  4-14  4-12  5-8  5.41 
03/24/10     UMass-Lowell   7-11  L   19-46  1-9  18-37  12-31  7-15  5-14  5-9  11  11  5.70 
03/25/10   at  UMass-Lowell   5-0  W   4-30  1-5  3-25  1-9  3-21  1-9  0-9  5.42 
03/27/10     Pace   8-0  W   2-30  0-15  2-15  1-6  1-24  2-11  0-9  14  5.16 
03/28/10   at  Franklin Pierce   8-7  W   12-39  2-9  10-30  7-21  5-18  1-10  4-9  12  5.20 
03/31/10   at  Franklin Pierce   2-5  L   9-35  0-4  9-31  6-14  3-21  3-12  1-9  13  10  5.15 
04/02/10     Pace   5-2  W   10-36  6-18  4-18  2-21  8-15  1-10  5-9  10  5.02 
04/06/10   at  Stonehill   9-10  L   17-42  4-12  13-30  10-27  7-15  2-12  5-10  5.13 
  04/07/10   at  Stonehill   6-10  L   18-41  5-12  13-29  11-26  7-15  6-13  4-8  12  5.34 
04/08/10     Stonehill   2-1  W   10-46  3-15  7-31  4-13  6-33  2-13  1-13  20  5.09 
04/10/10     Southern Connecticut  3-7  L   12-36  5-15  7-21  6-14  6-22  5-12  3-10  5.14 
04/10/10     Southern Connecticut  0-13  L   18-42  4-15  14-27  9-29  9-13  5-13  6-9  11  5.27 
  04/12/10     Saint Anselm   10-4  W   8-33  1-4  7-29  4-18  4-15  4-13  4-9  5.23 
  04/13/10   at  UMass-Lowell   6-3  W   7-31  0-3  7-28  2-14  5-17  2-9  3-9  11  5.16 
04/15/10   at  Assumption   8-1  W   10-36  2-12  8-24  4-16  6-20  3-9  2-9  15  5.03 
04/17/10   at  American Int'l.   5-1  W   6-33  3-8  3-25  3-9  3-24  4-13  1-9  11  4.91 
04/17/10   at  American Int'l.   15-0  W   6-32  2-7  4-25  1-13  5-19  2-10  2-9  4.77 
04/20/10     Merrimack   4-5  L   7-41  3-15  4-26  4-18  3-23  5-18  6-13  18  14  4.66 
04/22/10   at  Merrimack   7-1  W   5-30  2-13  3-17  1-13  4-17  1-10  4-9  13  10  4.56 
  04/23/10     Merrimack   10-0  W   2-28  2-9  0-19  1-9  1-19  2-10  2-9  10  10  4.44 
04/24/10   at  New Haven   0-7  L   13-35  4-11  9-24  8-19  5-16  2-10  3-8  12  4.50 
04/24/10   at  New Haven   2-6  L   8-29  3-8  5-21  4-19  4-10  2-9  6-8  12  4.52 
04/25/10   at  So. New Hampshire   6-7  L   13-37  4-8  9-29  8-22  5-15  7-13  6-9  13  4.59 
04/29/10     Assumption   3-4  L   9-34  3-12  6-22  3-20  6-14  1-8  4-9  4.57 
04/30/10     So. New Hampshire   5-6  L   10-34  3-7  7-27  7-17  3-17  5-13  2-9  10  4.58 
05/01/10     Saint Rose   5-2  W   9-33  3-8  6-25  4-13  5-20  3-10  3-9  14  4.50 
05/01/10     Saint Rose   2-5  L   13-38  1-5  12-33  8-20  5-18  6-14  4-9  13  4.49 
  05/04/10     Tufts   7-13  L   22-47  4-13  18-34  14-28  8-19  10-20  4-9  10  4.59 
   Totals        241-245  -   485-1634  130-474  355-1160  253-812  232-822  157-537  156-413  476  397  4.59 
                  .297  .274  .306  .312  .282  .292  .378 
 

Individual Game-by-Game

 
#32JP_Ashline
#5Greg_Baggett
#10Matt_Boudrow
#33Chris_Callery
#29Jeff_Croteau
#98Sam_Cummings
#4Ross_Curley
#20Jason_Cusumano
#2Brett_Damato
#16Mike_DeCoste
#7Vinnie_Eruzione
#99Mike_Ferriero
#14Rob_Finneran
#11Chris_Hardy
#21Brian_Jasiak
#1Sam_Koonce
#22Kevin_Korwek
#3Mark_Lane
#17Blaine_McLean
#26Dan_Murphy
#12Charlie_Pagliarulo
#23Lamarre_Rey
#6James_Roche
#8Dean_Sandonato
#19Chris_Sartori
#24Matt_Sherman
#30Jeff_Sturm
#15Phil_Whitaker
#28Michael_Xirinachs
#31John_Yohe